DABB/AAE METAR and TAF weather

Enter ICAO airport designator
Station Type Date Time Source
DABB METAR 2018/06/25 17:00 UTC NOAA

DABB 251700Z 36016KT 9999 FEW020 25/19 Q1013


Station Type Date Time Source
DABB Decoded METAR 2018/06/25 17:00 UTC NOAA

Annaba, Algeria (DABB) 36-50N 007-49E 4M
Jun 25, 2018 - 01:00 PM EDT / 2018.06.25 1700 UTC
Wind: from the N (360 degrees) at 18 MPH (16 KT):0
Visibility: greater than 7 mile(s):0
Sky conditions: mostly clear
Temperature: 77 F (25 C)
Dew Point: 66 F (19 C)
Relative Humidity: 69%
Pressure (altimeter): 29.91 in. Hg (1013 hPa)
ob: DABB 251700Z 36016KT 9999 FEW020 25/19 Q1013
cycle: 17

Station Type Date Time Source
DABB TAF 2018/06/25 12:33 UTC NOAA

TAF DABB 251100Z 2512/2612 35014KT 9999 FEW020 SCT033 PROB30
TEMPO 2512/2520 FEW023TCU
BECMG 2522/2524 VRB02KT PROB30
TEMPO 2601/2607 2000 BR BKN010
BECMG 2609/2611 33012KT


Example: see airport list